Time;durP1;ratioP1;P1;durP2;ratioP2;P2;SDS_P1;SDS_P2;PMS_P1;PMS_P2;Temp;Humidity;BMP_temperature;BMP_pressure;BME280_temperature;BME280_humidity;BME280_pressure;Samples;Min_cycle;Max_cycle;Signal;HPM_P1;HPM_P2
2021/03/22 00:00:39;;;;;;;9.20;7.13;;;;;;;3.80;99.82;93768.84;5052801;28;20453;-77
2021/03/22 00:03:07;;;;;;;8.43;7.43;;;;;;;3.80;98.48;93766.25;5053034;28;20442;-77
2021/03/22 00:05:34;;;;;;;6.97;5.83;;;;;;;3.71;97.89;93757.38;5052596;28;20500;-77
2021/03/22 00:08:01;;;;;;;5.70;5.00;;;;;;;3.63;98.62;93749.38;5054174;28;20445;-77
2021/03/22 00:10:29;;;;;;;10.37;6.37;;;;;;;3.65;99.48;93750.91;5056326;28;20510;-76
2021/03/22 00:12:56;;;;;;;8.80;6.10;;;;;;;3.66;99.09;93746.53;5056246;28;20989;-77
2021/03/22 00:15:24;;;;;;;12.17;8.73;;;;;;;3.65;98.77;93742.28;5056477;28;20468;-77
2021/03/22 00:17:51;;;;;;;10.00;7.80;;;;;;;3.67;99.78;93736.03;5056358;28;20527;-77
2021/03/22 00:20:19;;;;;;;14.73;8.50;;;;;;;3.70;99.13;93730.63;5055865;28;20449;-77
2021/03/22 00:22:45;;;;;;;16.37;9.80;;;;;;;3.73;99.58;93727.78;5056597;28;20434;-76
2021/03/22 00:25:13;;;;;;;12.73;9.30;;;;;;;3.76;98.26;93718.09;5056049;28;20440;-76
2021/03/22 00:27:40;;;;;;;12.60;7.83;;;;;;;3.73;98.25;93719.19;5056152;28;20441;-77
2021/03/22 00:30:20;;;;;;;10.93;5.87;;;;;;;3.81;98.23;93728.97;5055872;28;20434;-77
2021/03/22 00:32:46;;;;;;;9.03;5.20;;;;;;;3.89;98.54;93722.25;5055624;28;20499;-77
2021/03/22 00:35:14;;;;;;;2.57;2.27;;;;;;;3.92;97.57;93716.00;5055633;28;20453;-76
2021/03/22 00:37:41;;;;;;;4.30;3.90;;;;;;;3.93;96.69;93721.06;5055826;28;20473;-76
2021/03/22 00:40:09;;;;;;;5.93;3.50;;;;;;;3.98;97.07;93725.88;5055604;28;20464;-77
2021/03/22 00:42:38;;;;;;;3.47;3.17;;;;;;;4.04;97.11;93723.63;5037519;28;20453;-77
2021/03/22 00:45:06;;;;;;;6.63;4.47;;;;;;;4.09;96.97;93725.91;5037192;28;20810;-77
2021/03/22 00:47:33;;;;;;;5.73;4.07;;;;;;;4.13;97.21;93727.31;5037296;28;20481;-76
2021/03/22 00:50:02;;;;;;;6.93;4.93;;;;;;;4.18;96.14;93722.56;5055896;28;20460;-77
2021/03/22 00:52:28;;;;;;;7.10;4.63;;;;;;;4.20;96.50;93710.28;5055183;28;21048;-77
2021/03/22 00:54:55;;;;;;;10.27;5.80;;;;;;;4.25;95.35;93715.94;5055892;28;20441;-77
2021/03/22 00:57:22;;;;;;;8.00;6.73;;;;;;;4.27;96.07;93711.44;5055028;28;20444;-77
2021/03/22 00:59:48;;;;;;;12.00;6.80;;;;;;;4.33;94.90;93716.16;5054990;28;20453;-77
2021/03/22 01:02:15;;;;;;;10.70;7.43;;;;;;;4.30;94.41;93706.00;5054795;28;20834;-77
2021/03/22 01:04:42;;;;;;;11.60;8.33;;;;;;;4.27;95.32;93706.25;5054802;28;20825;-77
2021/03/22 01:07:08;;;;;;;8.70;7.43;;;;;;;4.26;94.38;93712.41;5054648;28;20842;-77
2021/03/22 01:09:34;;;;;;;9.60;8.50;;;;;;;4.26;94.74;93709.81;5054716;28;20502;-77
2021/03/22 01:12:02;;;;;;;16.07;11.37;;;;;;;4.26;95.34;93701.19;5054605;28;20448;-77
2021/03/22 01:14:28;;;;;;;14.80;11.30;;;;;;;4.28;95.15;93688.91;5054564;28;20809;-77
2021/03/22 01:16:56;;;;;;;15.87;10.90;;;;;;;4.24;95.42;93670.16;5054875;28;20452;-77
2021/03/22 01:19:25;;;;;;;13.27;9.10;;;;;;;4.21;95.25;93673.00;5054042;28;20473;-77
2021/03/22 01:21:55;;;;;;;15.17;10.67;;;;;;;4.17;95.06;93674.19;5055224;28;20429;-77
2021/03/22 01:24:23;;;;;;;21.67;15.40;;;;;;;4.17;95.16;93673.38;5054613;28;20429;-77
2021/03/22 01:26:51;;;;;;;16.50;10.70;;;;;;;4.13;95.15;93662.41;5055219;28;20436;-77
2021/03/22 01:29:24;;;;;;;14.47;9.47;;;;;;;4.14;95.36;93671.84;5054725;28;20925;-77
2021/03/22 01:31:53;;;;;;;13.97;10.13;;;;;;;4.14;95.54;93668.41;5054576;28;20822;-77
2021/03/22 01:34:19;;;;;;;14.90;9.20;;;;;;;4.15;95.62;93663.09;5055254;28;20533;-77
2021/03/22 01:36:46;;;;;;;15.50;9.30;;;;;;;4.17;95.38;93657.78;5055391;28;20456;-77
2021/03/22 01:39:15;;;;;;;17.50;9.87;;;;;;;4.17;95.69;93663.81;5055132;28;20481;-77
2021/03/22 01:41:52;;;;;;;13.77;9.97;;;;;;;4.16;95.98;93667.34;5054788;28;20441;-77
2021/03/22 01:44:26;;;;;;;15.80;9.80;;;;;;;4.16;95.63;93664.75;5054670;28;20901;-77
2021/03/22 01:46:56;;;;;;;14.00;10.33;;;;;;;4.20;96.38;93650.59;5054657;28;20473;-77
2021/03/22 01:49:25;;;;;;;15.47;10.47;;;;;;;4.25;95.65;93645.84;5054473;28;20987;-77
2021/03/22 01:51:52;;;;;;;12.10;8.70;;;;;;;4.28;95.21;93632.59;5035695;28;20444;-76
2021/03/22 01:54:19;;;;;;;11.20;7.43;;;;;;;4.33;94.79;93634.81;5054333;28;20438;-77
2021/03/22 01:56:52;;;;;;;9.50;7.13;;;;;;;4.33;93.37;93635.66;5019397;28;20491;-77
2021/03/22 01:59:26;;;;;;;13.67;7.70;;;;;;;4.22;93.85;93627.91;5054305;28;20560;-77
2021/03/22 02:01:56;;;;;;;9.70;6.20;;;;;;;4.25;94.31;93626.84;5054618;28;20437;-77
2021/03/22 02:04:23;;;;;;;9.17;5.43;;;;;;;4.24;94.86;93623.41;5054595;28;20463;-77
2021/03/22 02:06:53;;;;;;;7.63;5.70;;;;;;;4.25;94.38;93626.84;5054052;28;20438;-77
2021/03/22 02:09:20;;;;;;;7.13;5.60;;;;;;;4.23;93.51;93626.97;5054085;28;20439;-77
2021/03/22 02:11:46;;;;;;;9.47;6.20;;;;;;;4.23;93.89;93628.75;5053584;28;20476;-77
2021/03/22 02:14:13;;;;;;;9.10;6.37;;;;;;;4.22;94.27;93627.09;5054413;28;20437;-77
2021/03/22 02:16:56;;;;;;;11.80;6.30;;;;;;;4.20;94.28;93624.63;5053805;28;20452;-76
2021/03/22 02:19:51;;;;;;;6.50;5.83;;;;;;;4.20;95.45;93629.00;5069158;28;20488;-77
2021/03/22 02:22:47;;;;;;;5.73;5.03;;;;;;;4.21;94.25;93631.47;4992246;28;20443;-77
2021/03/22 02:25:25;;;;;;;5.20;4.00;;;;;;;4.22;94.50;93621.91;4934554;29;20466;-77
2021/03/22 02:28:27;;;;;;;6.40;5.20;;;;;;;4.21;93.43;93622.84;4934613;29;20515;-77
2021/03/22 02:31:35;;;;;;;6.23;4.70;;;;;;;4.20;93.42;93624.63;4934070;29;20458;-76
2021/03/22 02:34:11;;;;;;;4.63;4.00;;;;;;;4.19;94.14;93627.34;4896043;29;20449;-76
2021/03/22 02:36:48;;;;;;;6.73;5.97;;;;;;;4.18;93.81;93621.31;4897126;29;20432;-77
2021/03/22 02:39:15;;;;;;;6.23;5.43;;;;;;;4.18;94.60;93621.31;4896545;29;20468;-76
2021/03/22 02:41:46;;;;;;;11.47;6.70;;;;;;;4.17;94.00;93611.88;4896652;29;20880;-77
2021/03/22 02:44:16;;;;;;;6.73;4.97;;;;;;;4.15;93.85;93613.78;4896581;29;20448;-77
2021/03/22 02:46:43;;;;;;;5.90;4.30;;;;;;;4.11;94.19;93622.78;4896238;29;20490;-77
2021/03/22 02:49:14;;;;;;;4.17;3.77;;;;;;;4.07;94.04;93617.94;4849823;29;20971;-77
2021/03/22 02:51:53;;;;;;;4.20;3.80;;;;;;;4.00;93.97;93609.81;4896326;29;20472;-77
2021/03/22 02:54:28;;;;;;;6.70;4.27;;;;;;;4.01;93.83;93598.47;4896008;29;20528;-77
2021/03/22 02:57:00;;;;;;;4.90;4.13;;;;;;;4.01;94.25;93603.66;4896341;29;20956;-77
2021/03/22 02:59:31;;;;;;;6.30;4.03;;;;;;;3.89;94.15;93604.66;4905583;29;20494;-76
2021/03/22 03:02:01;;;;;;;3.50;2.43;;;;;;;3.69;95.64;93601.84;4963287;28;20458;-77
2021/03/22 03:04:30;;;;;;;3.33;2.80;;;;;;;3.47;96.30;93588.94;5011494;28;20455;-77
2021/03/22 03:06:59;;;;;;;2.90;2.70;;;;;;;3.38;96.92;93574.91;5011515;28;20463;-76
2021/03/22 03:09:27;;;;;;;3.87;2.60;;;;;;;3.27;97.66;93585.31;5018605;28;20457;-77
2021/03/22 03:11:55;;;;;;;2.07;1.80;;;;;;;3.10;98.17;93576.22;5053453;28;20528;-77
2021/03/22 03:14:22;;;;;;;2.40;2.20;;;;;;;3.07;98.93;93567.88;5053392;28;20440;-77
2021/03/22 03:16:49;;;;;;;2.10;1.77;;;;;;;3.20;98.46;93562.56;5052997;28;20453;-75
2021/03/22 03:19:15;;;;;;;1.80;1.70;;;;;;;3.28;98.72;93558.44;5052946;28;20473;-77
2021/03/22 03:21:42;;;;;;;2.53;2.33;;;;;;;3.37;98.70;93569.84;5053256;28;20437;-77
2021/03/22 03:24:11;;;;;;;4.10;2.40;;;;;;;3.47;98.36;93577.72;5053361;28;20869;-77
2021/03/22 03:26:37;;;;;;;2.47;2.27;;;;;;;3.40;97.73;93562.66;5053008;28;20437;-77
2021/03/22 03:29:04;;;;;;;6.43;2.20;;;;;;;3.49;97.20;93560.31;5052968;28;20449;-74
2021/03/22 03:31:31;;;;;;;2.50;2.30;;;;;;;3.51;97.44;93561.84;5053188;28;20437;-74
2021/03/22 03:33:57;;;;;;;3.90;2.60;;;;;;;3.49;96.44;93563.72;5053374;28;20433;-77
2021/03/22 03:36:24;;;;;;;5.50;3.33;;;;;;;3.54;97.17;93563.34;5052699;28;20433;-77
2021/03/22 03:38:51;;;;;;;2.53;2.33;;;;;;;3.51;96.14;93564.44;5053797;28;20492;-77
2021/03/22 03:41:17;;;;;;;3.30;3.00;;;;;;;3.50;96.62;93560.19;5053269;28;20441;-75
2021/03/22 03:43:43;;;;;;;3.90;2.27;;;;;;;3.60;96.06;93570.66;5055593;28;20441;-75
2021/03/22 03:46:10;;;;;;;2.73;2.43;;;;;;;3.59;95.53;93577.59;5056440;28;20449;-75
2021/03/22 03:48:36;;;;;;;3.20;2.90;;;;;;;3.68;95.44;93565.66;5057306;28;20530;-75
2021/03/22 03:51:03;;;;;;;2.17;1.97;;;;;;;3.72;95.80;93554.09;5021608;28;20445;-75
2021/03/22 03:53:30;;;;;;;4.77;2.20;;;;;;;3.71;94.69;93552.44;5057071;28;20511;-75
2021/03/22 03:55:59;;;;;;;2.40;2.20;;;;;;;3.71;93.91;93555.03;5056909;28;20494;-75
2021/03/22 03:58:25;;;;;;;2.93;2.67;;;;;;;3.79;95.19;93557.88;5056414;28;20489;-75
2021/03/22 04:00:52;;;;;;;2.53;2.17;;;;;;;3.88;94.61;93556.31;5071487;28;20441;-75
2021/03/22 04:03:22;;;;;;;2.43;2.23;;;;;;;3.92;93.27;93558.53;5056429;28;20461;-76
2021/03/22 04:05:57;;;;;;;2.90;2.70;;;;;;;3.96;93.91;93553.91;5056655;28;20531;-76
2021/03/22 04:08:24;;;;;;;2.00;1.90;;;;;;;3.94;92.69;93546.25;5056509;28;20441;-75
2021/03/22 04:10:51;;;;;;;3.13;2.73;;;;;;;3.93;93.12;93548.97;5056270;28;20449;-75
2021/03/22 04:13:19;;;;;;;4.30;3.40;;;;;;;4.02;93.52;93558.59;5071096;28;20465;-75
2021/03/22 04:15:46;;;;;;;6.00;4.10;;;;;;;3.73;93.55;93553.97;5056560;28;20473;-75
2021/03/22 04:18:12;;;;;;;3.60;3.30;;;;;;;3.63;94.69;93550.47;5055769;28;20473;-75
2021/03/22 04:20:39;;;;;;;5.70;4.70;;;;;;;3.60;94.38;93542.94;5055819;28;20921;-75
2021/03/22 04:23:06;;;;;;;8.33;4.60;;;;;;;3.43;94.95;93551.22;5055814;28;20445;-75
2021/03/22 04:25:32;;;;;;;7.43;4.80;;;;;;;3.37;95.99;93557.72;5056457;28;20441;-75
2021/03/22 04:27:59;;;;;;;8.00;5.13;;;;;;;3.36;95.85;93550.88;5056390;28;20505;-75
2021/03/22 04:30:27;;;;;;;4.30;3.03;;;;;;;2.81;98.67;93541.34;5056084;28;20437;-75
2021/03/22 04:32:53;;;;;;;3.77;3.20;;;;;;;2.69;100.00;93535.34;5056120;28;20433;-75
2021/03/22 04:35:21;;;;;;;2.63;2.43;;;;;;;2.80;100.00;93537.94;5054370;28;20437;-75
2021/03/22 04:37:48;;;;;;;4.00;3.60;;;;;;;2.96;99.85;93537.59;5055928;28;20761;-75
2021/03/22 04:40:16;;;;;;;5.10;2.63;;;;;;;3.03;100.00;93538.78;5055642;28;20429;-75
2021/03/22 04:42:42;;;;;;;3.53;2.87;;;;;;;3.11;99.80;93541.59;5055975;28;20430;-75
2021/03/22 04:45:09;;;;;;;2.90;2.60;;;;;;;3.23;98.86;93546.78;5055756;28;20446;-75
2021/03/22 04:47:37;;;;;;;4.47;4.07;;;;;;;3.35;98.87;93545.81;5056110;28;20480;-76
2021/03/22 04:50:05;;;;;;;5.00;4.10;;;;;;;3.48;98.38;93543.09;5055550;28;20430;-75
2021/03/22 04:52:32;;;;;;;5.20;4.50;;;;;;;3.53;98.25;93546.97;5055686;28;20441;-75
2021/03/22 04:54:58;;;;;;;6.67;5.97;;;;;;;3.64;97.49;93554.72;5055307;28;20906;-75
2021/03/22 04:57:26;;;;;;;8.57;6.10;;;;;;;3.68;97.61;93544.91;5055154;28;20449;-75
2021/03/22 04:59:53;;;;;;;10.63;6.63;;;;;;;3.69;96.10;93536.19;5055571;28;20477;-75
2021/03/22 05:02:19;;;;;;;6.67;4.90;;;;;;;3.69;96.36;93541.38;5055756;28;20857;-75
2021/03/22 05:04:47;;;;;;;5.23;4.20;;;;;;;3.73;95.77;93543.59;5055010;28;20462;-73
2021/03/22 05:07:14;;;;;;;5.90;5.27;;;;;;;3.80;95.30;93543.13;5055414;28;20457;-75
2021/03/22 05:09:40;;;;;;;5.43;4.93;;;;;;;3.60;96.09;93549.91;5055070;28;20438;-76
2021/03/22 05:12:08;;;;;;;6.70;5.20;;;;;;;3.22;97.32;93553.75;5054852;28;20436;-76
2021/03/22 05:14:34;;;;;;;10.23;5.80;;;;;;;3.27;98.44;93550.78;5020382;28;20445;-81
2021/03/22 05:17:00;;;;;;;10.43;6.77;;;;;;;3.29;98.63;93546.31;5065039;28;20454;-74
2021/03/22 05:19:27;;;;;;;9.20;6.07;;;;;;;3.24;99.52;93543.25;5035306;28;20513;-74
2021/03/22 05:21:56;;;;;;;11.27;10.17;;;;;;;2.74;100.00;93547.94;5000342;28;20446;-76
2021/03/22 05:24:23;;;;;;;7.27;4.60;;;;;;;3.01;100.00;93555.38;5035832;28;20442;-74
2021/03/22 05:26:50;;;;;;;9.00;4.90;;;;;;;2.75;100.00;93549.59;5034984;28;20435;-74
2021/03/22 05:32:41;;;;;;;18.38;16.50;;;;;;;2.62;100.00;93551.50;5034779;28;20409;-76
2021/03/22 05:35:10;;;;;;;7.77;7.07;;;;;;;2.77;100.00;93552.91;5034956;28;20203;-76
2021/03/22 05:37:37;;;;;;;15.87;14.30;;;;;;;2.76;100.00;93553.84;5034903;28;20446;-75
2021/03/22 05:40:05;;;;;;;8.87;8.10;;;;;;;2.60;100.00;93555.94;5034881;28;20565;-75
2021/03/22 05:42:50;;;;;;;9.02;8.15;;;;;;;2.35;100.00;93564.72;5034835;28;20796;-76
2021/03/22 05:45:45;;;;;;;11.13;10.13;;;;;;;1.95;100.00;93553.88;5034745;28;20214;-75
2021/03/22 05:48:29;;;;;;;5.78;5.18;;;;;;;1.99;100.00;93555.31;4992747;28;20232;-75
2021/03/22 05:51:06;;;;;;;14.30;12.15;;;;;;;1.97;100.00;93554.59;4992857;28;20192;-76
2021/03/22 05:53:48;;;;;;;12.65;7.72;;;;;;;2.10;100.00;93557.94;4993186;28;20201;-75
2021/03/22 05:56:22;;;;;;;6.63;5.20;;;;;;;2.23;100.00;93566.44;4992979;28;20212;-75
2021/03/22 05:59:10;;;;;;;8.55;6.82;;;;;;;2.32;100.00;93570.97;4992825;28;20479;-76
2021/03/22 06:01:43;;;;;;;6.00;3.72;;;;;;;2.36;100.00;93572.38;4992792;28;20211;-76
2021/03/22 06:04:19;;;;;;;3.78;3.03;;;;;;;2.51;100.00;93577.34;4992855;28;20209;-75
2021/03/22 06:06:47;;;;;;;4.13;3.40;;;;;;;2.41;100.00;93575.44;4992035;28;20239;-76
2021/03/22 06:09:26;;;;;;;9.20;8.30;;;;;;;2.70;100.00;93562.09;4992402;28;20506;-75
2021/03/22 06:12:01;;;;;;;5.63;4.27;;;;;;;2.96;100.00;93563.50;5004748;28;20474;-75
2021/03/22 06:14:43;;;;;;;6.97;6.30;;;;;;;3.11;100.00;93567.50;5012221;28;20927;-75
2021/03/22 06:17:16;;;;;;;13.30;6.57;;;;;;;3.29;100.00;93585.19;5012110;28;20565;-75
2021/03/22 06:19:49;;;;;;;6.37;5.73;;;;;;;3.41;100.00;93576.44;5011938;28;20489;-74
2021/03/22 06:22:21;;;;;;;5.07;4.67;;;;;;;3.55;100.00;93586.56;5011943;28;20814;-74
2021/03/22 06:24:48;;;;;;;6.63;6.03;;;;;;;3.66;99.95;93578.75;5030416;28;20468;-75
2021/03/22 06:27:16;;;;;;;4.17;3.73;;;;;;;3.44;97.74;93573.59;5053937;28;20901;-75
2021/03/22 06:29:44;;;;;;;11.90;7.20;;;;;;;3.63;98.05;93580.78;5053632;28;20449;-75
2021/03/22 06:32:17;;;;;;;9.17;6.00;;;;;;;3.72;97.66;93577.44;5053320;28;20453;-75
2021/03/22 06:34:51;;;;;;;14.50;7.30;;;;;;;3.76;97.41;93578.88;5020276;28;20449;-75
2021/03/22 06:37:20;;;;;;;10.57;9.67;;;;;;;3.70;97.02;93580.16;5053815;28;20455;-75
2021/03/22 06:39:50;;;;;;;23.87;12.70;;;;;;;3.74;97.18;93578.97;4986281;28;20842;-75
2021/03/22 06:42:19;;;;;;;27.93;10.70;;;;;;;3.83;97.69;93581.81;5053987;28;20473;-75
2021/03/22 06:44:46;;;;;;;12.40;6.00;;;;;;;3.92;96.86;93578.47;5053460;28;20450;-75
2021/03/22 06:47:30;;;;;;;18.37;5.67;;;;;;;4.09;97.21;93580.53;5053008;28;20809;-75
2021/03/22 06:50:21;;;;;;;13.00;8.30;;;;;;;4.18;96.33;93577.19;5053443;28;20782;-79
2021/03/22 06:52:49;;;;;;;30.83;18.17;;;;;;;4.14;94.63;93572.38;5053516;28;20483;-78
2021/03/22 06:55:33;;;;;;;19.30;11.87;;;;;;;4.29;95.00;93569.34;5019257;28;20491;-78
2021/03/22 07:11:27;;;;;;;10.23;6.47;;;;;;;4.82;92.38;93574.50;5052937;28;20392;-78
2021/03/22 07:13:56;;;;;;;8.47;7.67;;;;;;;4.86;92.11;93575.88;5053066;28;20433;-78
2021/03/22 07:16:25;;;;;;;9.23;7.17;;;;;;;4.89;91.93;93575.63;5053437;28;20449;-77
2021/03/22 07:19:16;;;;;;;8.23;6.17;;;;;;;4.88;91.89;93573.97;5056317;28;20473;-77
2021/03/22 07:21:49;;;;;;;5.90;5.30;;;;;;;4.90;91.49;93574.66;5057149;28;21020;-77
2021/03/22 07:24:22;;;;;;;8.77;6.50;;;;;;;4.92;90.14;93577.16;5056893;28;20516;-77
2021/03/22 07:27:13;;;;;;;11.93;7.70;;;;;;;4.98;90.57;93579.25;5057151;28;20436;-78
2021/03/22 07:30:18;;;;;;;7.40;6.30;;;;;;;5.02;89.69;93585.00;5056977;28;20776;-77
2021/03/22 07:32:48;;;;;;;7.93;6.30;;;;;;;5.03;88.02;93584.03;5036803;28;20467;-78
2021/03/22 07:35:40;;;;;;;7.40;5.97;;;;;;;5.09;89.76;93589.53;5036642;28;20499;-78
2021/03/22 07:38:13;;;;;;;8.60;6.70;;;;;;;5.14;88.06;93608.19;5036922;28;20438;-78
2021/03/22 07:40:49;;;;;;;7.50;6.80;;;;;;;5.19;88.03;93607.78;5036651;28;20438;-78
2021/03/22 07:43:35;;;;;;;7.80;6.70;;;;;;;5.28;87.91;93612.22;5036792;28;20430;-78
2021/03/22 07:56:53;;;;;;;9.80;7.80;;;;;;;5.32;87.08;93611.00;5032157;28;21025;-77
2021/03/22 07:59:30;;;;;;;9.10;7.83;;;;;;;5.27;87.39;93614.00;5036490;28;20484;-77
2021/03/22 08:02:12;;;;;;;15.57;11.43;;;;;;;5.24;88.15;93611.66;5046534;28;20494;-77
2021/03/22 08:04:49;;;;;;;23.10;12.97;;;;;;;5.05;86.61;93608.13;5056385;28;20448;-76
2021/03/22 08:07:39;;;;;;;26.23;17.80;;;;;;;4.94;88.52;93603.84;5056011;28;20448;-78
2021/03/22 08:10:24;;;;;;;32.67;19.83;;;;;;;4.81;88.69;93609.22;4994764;28;20448;-77
2021/03/22 08:12:57;;;;;;;24.97;17.07;;;;;;;4.78;88.66;93606.88;4946837;28;20438;-78
2021/03/22 08:15:32;;;;;;;26.00;15.30;;;;;;;4.63;89.00;93609.00;4994598;28;20455;-77
2021/03/22 08:18:07;;;;;;;20.37;14.23;;;;;;;4.57;89.22;93600.84;4994547;28;20998;-78
2021/03/22 08:20:37;;;;;;;31.20;19.10;;;;;;;4.56;89.90;93609.59;4994479;28;20516;-77
2021/03/22 08:23:15;;;;;;;21.77;12.40;;;;;;;4.40;89.71;93601.44;4994461;28;20444;-78
2021/03/22 08:25:48;;;;;;;15.30;10.57;;;;;;;4.33;89.15;93596.69;4994384;28;20436;-77
2021/03/22 08:28:21;;;;;;;23.97;12.67;;;;;;;4.28;90.02;93592.84;4993934;28;20452;-78
2021/03/22 08:30:59;;;;;;;14.77;10.00;;;;;;;4.37;90.46;93599.91;4994197;28;20808;-78
2021/03/22 08:33:31;;;;;;;17.57;8.77;;;;;;;4.47;89.73;93594.78;4995100;28;20444;-77
2021/03/22 08:36:03;;;;;;;15.60;9.27;;;;;;;4.61;89.16;93602.25;4962040;28;20448;-78
2021/03/22 08:38:42;;;;;;;16.13;9.20;;;;;;;4.69;88.55;93606.81;4994363;28;21062;-77
2021/03/22 08:41:26;;;;;;;14.53;9.67;;;;;;;4.62;88.58;93601.28;4993979;28;20447;-77
2021/03/22 08:43:56;;;;;;;17.83;12.40;;;;;;;4.81;89.66;93603.19;4994883;28;20456;-77
2021/03/22 08:46:32;;;;;;;9.07;7.87;;;;;;;4.93;89.07;93607.41;5002038;28;20452;-77
2021/03/22 08:49:00;;;;;;;12.80;7.70;;;;;;;4.98;87.24;93600.84;5055531;28;20429;-78
2021/03/22 08:51:29;;;;;;;7.40;6.20;;;;;;;5.05;86.79;93605.53;5055238;28;20763;-77
2021/03/22 08:53:58;;;;;;;7.03;6.13;;;;;;;5.14;87.65;93610.78;5054769;28;20445;-78
2021/03/22 08:56:35;;;;;;;8.43;6.53;;;;;;;5.32;87.04;93592.81;5055151;28;20491;-78
2021/03/22 08:59:06;;;;;;;17.00;12.10;;;;;;;5.44;86.29;93603.94;5055453;28;20476;-77
2021/03/22 09:01:35;;;;;;;19.33;12.83;;;;;;;5.45;86.09;93598.59;5055122;28;20442;-77
2021/03/22 09:04:28;;;;;;;25.27;16.23;;;;;;;5.45;86.47;93596.00;5055290;28;20460;-78
2021/03/22 09:07:01;;;;;;;23.50;16.37;;;;;;;5.37;85.46;93593.22;5055826;28;20434;-77
2021/03/22 09:09:30;;;;;;;22.23;15.73;;;;;;;5.35;85.55;93596.91;5054840;28;20448;-77
2021/03/22 09:11:58;;;;;;;15.23;11.80;;;;;;;5.41;85.72;93594.63;5055587;28;20525;-77
2021/03/22 09:14:40;;;;;;;17.87;12.43;;;;;;;5.43;84.96;93587.50;5054933;28;20440;-77
2021/03/22 09:17:34;;;;;;;9.50;8.00;;;;;;;5.63;83.84;93601.41;5055150;28;20433;-77
2021/03/22 09:20:18;;;;;;;12.80;9.33;;;;;;;5.65;83.48;93602.09;5036461;28;21212;-77
2021/03/22 09:22:54;;;;;;;7.90;7.20;;;;;;;5.79;83.66;93604.34;5054682;28;20433;-78
2021/03/22 09:26:02;;;;;;;6.77;6.03;;;;;;;5.97;82.79;93608.91;5055245;28;20422;-78
2021/03/22 09:28:41;;;;;;;10.97;6.60;;;;;;;6.01;82.87;93608.50;5054818;28;20436;-78
2021/03/22 09:31:41;;;;;;;11.20;7.57;;;;;;;6.13;81.57;93611.84;5032867;28;20446;-77
2021/03/22 09:34:47;;;;;;;11.13;7.97;;;;;;;6.18;82.09;93612.25;5035295;28;20489;-78
2021/03/22 09:37:40;;;;;;;9.70;6.90;;;;;;;6.24;79.95;93600.47;5034411;28;20922;-78
2021/03/22 09:40:11;;;;;;;8.57;7.67;;;;;;;6.26;79.77;93601.97;5033962;28;20486;-77
2021/03/22 09:42:38;;;;;;;10.33;7.37;;;;;;;6.31;79.88;93591.13;5034779;28;20429;-77
2021/03/22 09:45:20;;;;;;;9.10;7.50;;;;;;;6.31;78.77;93597.16;5034674;28;20454;-77
2021/03/22 09:48:05;;;;;;;12.13;8.03;;;;;;;6.35;79.06;93584.69;5035390;28;20429;-77
2021/03/22 09:50:33;;;;;;;14.20;9.50;;;;;;;6.24;79.93;93590.03;5034228;28;20441;-77
2021/03/22 09:53:31;;;;;;;10.43;8.73;;;;;;;6.35;80.56;93582.09;5034388;28;20438;-78
2021/03/22 09:56:03;;;;;;;10.80;7.97;;;;;;;6.44;79.54;93582.09;5012285;28;20491;-79
2021/03/22 09:58:38;;;;;;;19.17;11.90;;;;;;;6.54;79.67;93579.50;5012214;28;20451;-77
2021/03/22 10:01:12;;;;;;;9.53;7.47;;;;;;;6.61;80.40;93575.34;5012143;28;20435;-78
2021/03/22 10:03:47;;;;;;;7.87;6.57;;;;;;;6.77;79.30;93578.22;5012352;28;20446;-77
2021/03/22 10:06:38;;;;;;;8.20;6.43;;;;;;;6.84;78.44;93568.06;5012353;28;20439;-78
2021/03/22 10:15:52;;;;;;;9.93;7.97;;;;;;;6.92;76.67;93568.19;5010933;28;20442;-78
2021/03/22 10:18:24;;;;;;;11.60;7.97;;;;;;;6.89;76.25;93570.25;4963415;28;20447;-78
2021/03/22 10:21:00;;;;;;;11.40;6.07;;;;;;;6.93;76.25;93579.44;5012008;28;20423;-77
2021/03/22 10:23:30;;;;;;;7.70;5.60;;;;;;;6.77;77.78;93575.63;5011785;28;20435;-78
2021/03/22 10:26:04;;;;;;;14.70;10.60;;;;;;;6.90;79.39;93583.13;5012086;28;20450;-78
2021/03/22 10:28:31;;;;;;;6.33;5.20;;;;;;;6.88;77.94;93585.06;5002338;28;20453;-78
2021/03/22 10:31:02;;;;;;;8.27;6.50;;;;;;;6.79;76.95;93589.34;5011242;28;20445;-79
2021/03/22 10:33:29;;;;;;;12.50;8.70;;;;;;;6.76;77.35;93594.03;5053267;28;20532;-77
2021/03/22 10:35:57;;;;;;;14.73;9.00;;;;;;;6.76;77.66;93599.22;5053483;28;20445;-78
2021/03/22 10:38:27;;;;;;;11.50;9.60;;;;;;;6.69;78.02;93605.97;5053403;28;20465;-77
2021/03/22 10:40:54;;;;;;;7.50;6.80;;;;;;;6.72;77.92;93601.28;5052152;28;20460;-79
2021/03/22 10:43:29;;;;;;;10.80;7.80;;;;;;;6.56;77.20;93602.81;5053180;28;20441;-76
2021/03/22 10:45:56;;;;;;;10.37;7.83;;;;;;;6.54;77.99;93597.72;5033958;28;20449;-77
2021/03/22 10:48:33;;;;;;;12.00;10.07;;;;;;;6.54;77.88;93597.72;5033456;28;20453;-76
2021/03/22 10:51:02;;;;;;;10.73;8.00;;;;;;;6.52;78.40;93599.66;5033519;28;20472;-77
2021/03/22 10:53:29;;;;;;;10.67;8.10;;;;;;;6.45;78.55;93593.34;5033457;28;20788;-78
2021/03/22 10:55:55;;;;;;;8.93;8.00;;;;;;;6.42;78.29;93598.84;5033488;28;20557;-77
2021/03/22 10:58:25;;;;;;;9.20;8.30;;;;;;;6.40;79.10;93590.34;5032906;28;20446;-78
2021/03/22 11:00:59;;;;;;;12.17;9.03;;;;;;;6.27;79.17;93600.19;5033158;28;20441;-77
2021/03/22 11:03:26;;;;;;;11.00;8.60;;;;;;;6.24;79.53;93593.47;4998830;28;20803;-78
2021/03/22 11:05:55;;;;;;;11.20;8.53;;;;;;;6.17;79.58;93590.59;5033280;28;20979;-77
2021/03/22 11:08:25;;;;;;;13.33;8.70;;;;;;;6.13;80.14;93594.44;5033472;28;20442;-79
2021/03/22 11:11:00;;;;;;;15.80;10.10;;;;;;;6.17;80.43;93606.22;5033280;28;20437;-77
2021/03/22 11:13:29;;;;;;;24.80;14.63;;;;;;;6.19;80.75;93611.28;5033201;28;20433;-78
2021/03/22 11:15:55;;;;;;;22.10;15.53;;;;;;;6.13;80.38;93604.84;5034240;28;20804;-78
2021/03/22 11:18:23;;;;;;;16.83;12.13;;;;;;;6.12;80.53;93602.38;5032849;28;20429;-79
2021/03/22 11:20:52;;;;;;;15.37;12.27;;;;;;;6.04;80.44;93595.22;5033676;28;20503;-79
2021/03/22 11:23:26;;;;;;;19.03;13.10;;;;;;;5.83;80.63;93595.31;5033404;28;20431;-78
2021/03/22 11:25:54;;;;;;;11.70;8.40;;;;;;;5.66;81.84;93598.53;5033379;28;20997;-78
2021/03/22 11:28:28;;;;;;;24.75;13.35;;;;;;;5.63;83.40;93600.59;5032875;28;20381;-75
2021/03/22 11:31:04;;;;;;;24.57;14.40;;;;;;;5.53;82.95;93601.38;5033027;28;20215;-76
2021/03/22 11:33:38;;;;;;;21.07;10.57;;;;;;;5.45;82.96;93597.78;5033261;28;20438;-76
2021/03/22 11:36:12;;;;;;;25.73;14.30;;;;;;;5.45;82.97;93603.78;5032535;28;20503;-77
2021/03/22 11:38:48;;;;;;;36.03;21.40;;;;;;;5.55;83.57;93596.88;5033100;28;20965;-78
2021/03/22 11:41:26;;;;;;;19.53;15.23;;;;;;;5.67;84.36;93604.56;5039147;28;20785;-77
2021/03/22 11:44:02;;;;;;;17.63;11.13;;;;;;;5.77;84.24;93603.63;5018654;28;20441;-77
2021/03/22 11:46:28;;;;;;;16.73;11.30;;;;;;;5.83;83.63;93603.13;5052847;28;20445;-77
2021/03/22 11:48:55;;;;;;;19.13;11.13;;;;;;;5.95;82.74;93595.22;5053404;28;20426;-76
2021/03/22 11:51:21;;;;;;;15.93;10.40;;;;;;;6.11;82.12;93601.56;5053293;28;20449;-77
2021/03/22 11:54:00;;;;;;;10.73;8.77;;;;;;;6.21;81.44;93596.34;5052941;28;20437;-77
2021/03/22 11:56:28;;;;;;;11.37;8.00;;;;;;;6.20;79.80;93598.13;5053231;28;20490;-78
2021/03/22 11:59:19;;;;;;;8.27;6.73;;;;;;;5.81;79.26;93609.41;5052489;28;20583;-77
2021/03/22 12:02:04;;;;;;;11.27;7.40;;;;;;;5.70;81.61;93612.09;5052878;28;20533;-76
2021/03/22 12:04:31;;;;;;;18.67;10.53;;;;;;;5.56;82.37;93602.91;5054840;28;20518;-77
2021/03/22 12:07:02;;;;;;;14.43;8.87;;;;;;;5.45;84.19;93609.00;5056372;28;20433;-76
2021/03/22 12:13:09;;;;;;;15.03;10.63;;;;;;;5.37;82.80;93611.44;5056022;28;20424;-76
2021/03/22 12:15:39;;;;;;;20.00;11.57;;;;;;;5.33;85.14;93612.66;5056604;28;20449;-76
2021/03/22 12:18:08;;;;;;;17.60;10.87;;;;;;;5.07;85.39;93611.44;5055982;28;20516;-77
2021/03/22 12:20:36;;;;;;;11.73;9.73;;;;;;;4.68;87.49;93613.81;5055913;28;20473;-77
2021/03/22 12:23:03;;;;;;;38.60;16.10;;;;;;;4.69;85.94;93625.84;5056209;28;20905;-77
2021/03/22 12:25:32;;;;;;;25.67;14.93;;;;;;;4.51;85.34;93628.16;5056143;28;20441;-77
2021/03/22 12:27:58;;;;;;;12.13;7.70;;;;;;;4.20;84.15;93624.63;5056621;28;20445;-76
2021/03/22 12:30:28;;;;;;;14.57;9.80;;;;;;;4.00;84.50;93634.00;5056226;28;20445;-76
2021/03/22 12:32:55;;;;;;;15.93;9.20;;;;;;;4.04;85.56;93632.78;5055953;28;20425;-76
2021/03/22 12:35:24;;;;;;;11.30;5.43;;;;;;;3.91;85.78;93631.31;5055929;28;20438;-76